sensor_id;sensor_type;location;lat;lon;timestamp;temperature;humidity
65369;HTU21D;51970;53.484;49.488;2024-03-08T00:00:09;-7.04;69.86
65369;HTU21D;51970;53.484;49.488;2024-03-08T00:02:38;-7.06;69.96
65369;HTU21D;51970;53.484;49.488;2024-03-08T00:05:06;-7.07;70.39
65369;HTU21D;51970;53.484;49.488;2024-03-08T00:07:38;-7.19;71.16
65369;HTU21D;51970;53.484;49.488;2024-03-08T00:10:06;-7.21;71.70
65369;HTU21D;51970;53.484;49.488;2024-03-08T00:12:33;-7.22;70.44
65369;HTU21D;51970;53.484;49.488;2024-03-08T00:14:59;-7.32;70.23
65369;HTU21D;51970;53.484;49.488;2024-03-08T00:17:25;-7.44;70.27
65369;HTU21D;51970;53.484;49.488;2024-03-08T00:19:51;-7.39;72.30
65369;HTU21D;51970;53.484;49.488;2024-03-08T00:22:17;-7.36;71.75
65369;HTU21D;51970;53.484;49.488;2024-03-08T00:24:44;-7.44;70.97
65369;HTU21D;51970;53.484;49.488;2024-03-08T00:27:13;-7.55;70.71
65369;HTU21D;51970;53.484;49.488;2024-03-08T00:29:39;-7.66;71.41
65369;HTU21D;51970;53.484;49.488;2024-03-08T00:32:05;-7.68;71.34
65369;HTU21D;51970;53.484;49.488;2024-03-08T00:34:36;-7.62;71.53
65369;HTU21D;51970;53.484;49.488;2024-03-08T00:37:03;-7.70;71.13
65369;HTU21D;51970;53.484;49.488;2024-03-08T00:39:30;-7.71;70.63
65369;HTU21D;51970;53.484;49.488;2024-03-08T00:41:56;-7.77;70.80
65369;HTU21D;51970;53.484;49.488;2024-03-08T00:44:22;-7.79;70.89
65369;HTU21D;51970;53.484;49.488;2024-03-08T00:46:51;-7.81;70.68
65369;HTU21D;51970;53.484;49.488;2024-03-08T00:49:20;-7.76;70.50
65369;HTU21D;51970;53.484;49.488;2024-03-08T00:51:46;-7.77;71.42
65369;HTU21D;51970;53.484;49.488;2024-03-08T00:54:12;-7.75;70.59
65369;HTU21D;51970;53.484;49.488;2024-03-08T00:56:37;-7.79;70.80
65369;HTU21D;51970;53.484;49.488;2024-03-08T00:59:06;-7.71;70.45
65369;HTU21D;51970;53.484;49.488;2024-03-08T01:01:33;-7.76;69.63
65369;HTU21D;51970;53.484;49.488;2024-03-08T01:03:59;-7.77;70.15
65369;HTU21D;51970;53.484;49.488;2024-03-08T01:06:25;-7.82;70.03
65369;HTU21D;51970;53.484;49.488;2024-03-08T01:08:52;-7.71;69.93
65369;HTU21D;51970;53.484;49.488;2024-03-08T01:11:19;-7.91;69.69
65369;HTU21D;51970;53.484;49.488;2024-03-08T01:13:45;-7.98;70.23
65369;HTU21D;51970;53.484;49.488;2024-03-08T01:16:13;-7.92;69.94
65369;HTU21D;51970;53.484;49.488;2024-03-08T01:18:39;-7.96;70.17
65369;HTU21D;51970;53.484;49.488;2024-03-08T01:21:05;-7.95;69.98
65369;HTU21D;51970;53.484;49.488;2024-03-08T01:23:31;-8.04;69.67
65369;HTU21D;51970;53.484;49.488;2024-03-08T01:25:57;-8.12;69.65
65369;HTU21D;51970;53.484;49.488;2024-03-08T01:28:24;-8.18;70.10
65369;HTU21D;51970;53.484;49.488;2024-03-08T01:30:50;-8.14;69.69
65369;HTU21D;51970;53.484;49.488;2024-03-08T01:33:25;-8.16;69.89
65369;HTU21D;51970;53.484;49.488;2024-03-08T01:35:54;-8.15;70.13
65369;HTU21D;51970;53.484;49.488;2024-03-08T01:38:21;-8.24;70.01
65369;HTU21D;51970;53.484;49.488;2024-03-08T01:40:47;-8.39;69.35
65369;HTU21D;51970;53.484;49.488;2024-03-08T01:43:32;-8.55;69.90
65369;HTU21D;51970;53.484;49.488;2024-03-08T01:45:59;-8.48;70.16
65369;HTU21D;51970;53.484;49.488;2024-03-08T01:48:27;-8.62;70.31
65369;HTU21D;51970;53.484;49.488;2024-03-08T01:50:56;-8.46;70.03
65369;HTU21D;51970;53.484;49.488;2024-03-08T01:53:24;-8.56;69.99
65369;HTU21D;51970;53.484;49.488;2024-03-08T01:55:54;-8.55;70.60
65369;HTU21D;51970;53.484;49.488;2024-03-08T01:58:22;-8.64;70.29
65369;HTU21D;51970;53.484;49.488;2024-03-08T02:00:48;-8.60;70.14
65369;HTU21D;51970;53.484;49.488;2024-03-08T02:03:18;-8.63;70.03
65369;HTU21D;51970;53.484;49.488;2024-03-08T02:05:45;-8.62;70.19
65369;HTU21D;51970;53.484;49.488;2024-03-08T02:08:11;-8.59;70.39
65369;HTU21D;51970;53.484;49.488;2024-03-08T02:10:41;-8.58;70.07
65369;HTU21D;51970;53.484;49.488;2024-03-08T02:13:07;-8.62;69.93
65369;HTU21D;51970;53.484;49.488;2024-03-08T02:15:57;-8.67;69.94
65369;HTU21D;51970;53.484;49.488;2024-03-08T02:18:25;-8.72;70.10
65369;HTU21D;51970;53.484;49.488;2024-03-08T02:20:53;-8.64;70.24
65369;HTU21D;51970;53.484;49.488;2024-03-08T02:23:19;-8.62;70.87
65369;HTU21D;51970;53.484;49.488;2024-03-08T02:25:47;-8.64;70.03
65369;HTU21D;51970;53.484;49.488;2024-03-08T02:28:14;-8.73;69.97
65369;HTU21D;51970;53.484;49.488;2024-03-08T02:30:41;-8.62;69.85
65369;HTU21D;51970;53.484;49.488;2024-03-08T02:33:07;-8.78;70.19
65369;HTU21D;51970;53.484;49.488;2024-03-08T02:35:35;-8.64;70.20
65369;HTU21D;51970;53.484;49.488;2024-03-08T02:38:05;-8.74;70.20
65369;HTU21D;51970;53.484;49.488;2024-03-08T02:40:31;-8.69;70.00
65369;HTU21D;51970;53.484;49.488;2024-03-08T02:42:58;-8.62;69.94
65369;HTU21D;51970;53.484;49.488;2024-03-08T02:45:24;-8.73;69.84
65369;HTU21D;51970;53.484;49.488;2024-03-08T02:47:51;-8.71;69.91
65369;HTU21D;51970;53.484;49.488;2024-03-08T02:50:17;-8.64;69.55
65369;HTU21D;51970;53.484;49.488;2024-03-08T02:52:43;-8.58;69.74
65369;HTU21D;51970;53.484;49.488;2024-03-08T02:55:12;-8.63;69.92
65369;HTU21D;51970;53.484;49.488;2024-03-08T02:57:41;-8.57;69.71
65369;HTU21D;51970;53.484;49.488;2024-03-08T03:00:08;-8.63;69.51
65369;HTU21D;51970;53.484;49.488;2024-03-08T03:02:37;-8.63;69.71
65369;HTU21D;51970;53.484;49.488;2024-03-08T03:05:03;-8.66;69.52
65369;HTU21D;51970;53.484;49.488;2024-03-08T03:07:32;-8.71;69.66
65369;HTU21D;51970;53.484;49.488;2024-03-08T03:10:02;-8.70;69.41
65369;HTU21D;51970;53.484;49.488;2024-03-08T03:12:29;-8.71;69.50
65369;HTU21D;51970;53.484;49.488;2024-03-08T03:14:56;-8.68;70.19
65369;HTU21D;51970;53.484;49.488;2024-03-08T03:17:23;-8.57;69.80
65369;HTU21D;51970;53.484;49.488;2024-03-08T03:19:51;-8.50;69.42
65369;HTU21D;51970;53.484;49.488;2024-03-08T03:22:20;-8.45;69.36
65369;HTU21D;51970;53.484;49.488;2024-03-08T03:24:46;-8.39;68.61
65369;HTU21D;51970;53.484;49.488;2024-03-08T03:27:15;-8.41;68.66
65369;HTU21D;51970;53.484;49.488;2024-03-08T03:29:42;-8.35;69.37
65369;HTU21D;51970;53.484;49.488;2024-03-08T03:32:12;-8.28;68.46
65369;HTU21D;51970;53.484;49.488;2024-03-08T03:34:39;-8.23;68.55
65369;HTU21D;51970;53.484;49.488;2024-03-08T03:37:05;-8.25;67.63
65369;HTU21D;51970;53.484;49.488;2024-03-08T03:39:39;-8.14;68.23
65369;HTU21D;51970;53.484;49.488;2024-03-08T03:42:18;-8.14;67.36
65369;HTU21D;51970;53.484;49.488;2024-03-08T03:44:48;-8.11;67.15
65369;HTU21D;51970;53.484;49.488;2024-03-08T03:47:15;-8.12;67.15
65369;HTU21D;51970;53.484;49.488;2024-03-08T03:49:41;-8.11;67.16
65369;HTU21D;51970;53.484;49.488;2024-03-08T03:52:09;-8.06;66.97
65369;HTU21D;51970;53.484;49.488;2024-03-08T03:54:36;-8.09;67.22
65369;HTU21D;51970;53.484;49.488;2024-03-08T03:57:02;-8.01;67.49
65369;HTU21D;51970;53.484;49.488;2024-03-08T03:59:28;-7.86;67.01
65369;HTU21D;51970;53.484;49.488;2024-03-08T04:01:55;-7.67;67.40
65369;HTU21D;51970;53.484;49.488;2024-03-08T04:04:21;-7.61;66.07
65369;HTU21D;51970;53.484;49.488;2024-03-08T04:06:49;-7.34;66.76
65369;HTU21D;51970;53.484;49.488;2024-03-08T04:09:17;-7.30;65.24
65369;HTU21D;51970;53.484;49.488;2024-03-08T04:11:45;-7.22;64.73
65369;HTU21D;51970;53.484;49.488;2024-03-08T04:14:11;-7.17;66.21
65369;HTU21D;51970;53.484;49.488;2024-03-08T04:16:38;-7.20;64.49
65369;HTU21D;51970;53.484;49.488;2024-03-08T04:19:03;-7.39;64.64
65369;HTU21D;51970;53.484;49.488;2024-03-08T04:21:32;-7.55;65.06
65369;HTU21D;51970;53.484;49.488;2024-03-08T04:23:59;-7.49;65.66
65369;HTU21D;51970;53.484;49.488;2024-03-08T04:26:25;-7.47;65.31
65369;HTU21D;51970;53.484;49.488;2024-03-08T04:28:51;-7.41;65.14
65369;HTU21D;51970;53.484;49.488;2024-03-08T04:31:17;-7.52;64.92
65369;HTU21D;51970;53.484;49.488;2024-03-08T04:33:43;-7.41;65.25
65369;HTU21D;51970;53.484;49.488;2024-03-08T04:36:10;-7.22;64.72
65369;HTU21D;51970;53.484;49.488;2024-03-08T04:38:40;-7.29;64.85
65369;HTU21D;51970;53.484;49.488;2024-03-08T04:41:07;-7.30;64.73
65369;HTU21D;51970;53.484;49.488;2024-03-08T04:43:33;-7.25;64.62
65369;HTU21D;51970;53.484;49.488;2024-03-08T04:46:00;-7.07;65.52
65369;HTU21D;51970;53.484;49.488;2024-03-08T04:48:29;-6.80;63.34
65369;HTU21D;51970;53.484;49.488;2024-03-08T04:50:55;-6.81;64.21
65369;HTU21D;51970;53.484;49.488;2024-03-08T04:53:21;-6.71;63.45
65369;HTU21D;51970;53.484;49.488;2024-03-08T04:55:48;-6.74;63.32
65369;HTU21D;51970;53.484;49.488;2024-03-08T04:58:14;-6.51;63.02
65369;HTU21D;51970;53.484;49.488;2024-03-08T05:00:41;-6.60;63.00
65369;HTU21D;51970;53.484;49.488;2024-03-08T05:03:07;-6.74;62.52
65369;HTU21D;51970;53.484;49.488;2024-03-08T05:05:33;-6.86;63.11
65369;HTU21D;51970;53.484;49.488;2024-03-08T05:07:59;-6.82;63.03
65369;HTU21D;51970;53.484;49.488;2024-03-08T05:10:27;-6.80;63.09
65369;HTU21D;51970;53.484;49.488;2024-03-08T05:12:53;-6.89;62.78
65369;HTU21D;51970;53.484;49.488;2024-03-08T05:15:19;-6.90;63.15
65369;HTU21D;51970;53.484;49.488;2024-03-08T05:17:46;-6.78;62.84
65369;HTU21D;51970;53.484;49.488;2024-03-08T05:20:12;-6.67;62.35
65369;HTU21D;51970;53.484;49.488;2024-03-08T05:22:39;-6.57;62.15
65369;HTU21D;51970;53.484;49.488;2024-03-08T05:25:06;-6.58;62.21
65369;HTU21D;51970;53.484;49.488;2024-03-08T05:27:36;-6.51;62.12
65369;HTU21D;51970;53.484;49.488;2024-03-08T05:30:03;-6.60;62.47
65369;HTU21D;51970;53.484;49.488;2024-03-08T05:32:30;-6.55;62.63
65369;HTU21D;51970;53.484;49.488;2024-03-08T05:34:56;-6.49;62.59
65369;HTU21D;51970;53.484;49.488;2024-03-08T05:37:22;-6.42;62.64
65369;HTU21D;51970;53.484;49.488;2024-03-08T05:39:49;-6.42;62.52
65369;HTU21D;51970;53.484;49.488;2024-03-08T05:42:15;-6.32;62.23
65369;HTU21D;51970;53.484;49.488;2024-03-08T05:44:41;-6.22;62.35
65369;HTU21D;51970;53.484;49.488;2024-03-08T05:47:07;-6.34;62.18
65369;HTU21D;51970;53.484;49.488;2024-03-08T05:49:33;-6.30;62.34
65369;HTU21D;51970;53.484;49.488;2024-03-08T05:51:59;-6.31;62.18
65369;HTU21D;51970;53.484;49.488;2024-03-08T05:54:26;-6.34;62.40
65369;HTU21D;51970;53.484;49.488;2024-03-08T05:56:53;-6.19;62.21
65369;HTU21D;51970;53.484;49.488;2024-03-08T05:59:20;-6.08;62.35
65369;HTU21D;51970;53.484;49.488;2024-03-08T06:01:46;-6.03;61.55
65369;HTU21D;51970;53.484;49.488;2024-03-08T06:04:12;-5.97;61.28
65369;HTU21D;51970;53.484;49.488;2024-03-08T06:06:40;-5.59;60.96
65369;HTU21D;51970;53.484;49.488;2024-03-08T06:09:06;-5.39;60.17
65369;HTU21D;51970;53.484;49.488;2024-03-08T06:11:37;-5.24;59.94
65369;HTU21D;51970;53.484;49.488;2024-03-08T06:14:03;-5.03;59.32
65369;HTU21D;51970;53.484;49.488;2024-03-08T06:16:30;-4.80;58.64
65369;HTU21D;51970;53.484;49.488;2024-03-08T06:18:56;-4.69;58.17
65369;HTU21D;51970;53.484;49.488;2024-03-08T06:21:23;-4.69;58.01
65369;HTU21D;51970;53.484;49.488;2024-03-08T06:23:55;-4.36;58.10
65369;HTU21D;51970;53.484;49.488;2024-03-08T06:26:24;-4.35;57.00
65369;HTU21D;51970;53.484;49.488;2024-03-08T06:28:51;-4.39;57.42
65369;HTU21D;51970;53.484;49.488;2024-03-08T06:31:17;-4.48;57.48
65369;HTU21D;51970;53.484;49.488;2024-03-08T06:33:43;-4.44;57.44
65369;HTU21D;51970;53.484;49.488;2024-03-08T06:36:09;-4.26;57.54
65369;HTU21D;51970;53.484;49.488;2024-03-08T06:38:38;-4.25;57.65
65369;HTU21D;51970;53.484;49.488;2024-03-08T06:41:11;-4.24;57.61
65369;HTU21D;51970;53.484;49.488;2024-03-08T06:43:44;-4.12;57.51
65369;HTU21D;51970;53.484;49.488;2024-03-08T06:46:11;-4.01;57.61
65369;HTU21D;51970;53.484;49.488;2024-03-08T06:48:39;-3.80;57.12
65369;HTU21D;51970;53.484;49.488;2024-03-08T06:51:05;-3.82;56.84
65369;HTU21D;51970;53.484;49.488;2024-03-08T06:53:31;-3.72;57.54
65369;HTU21D;51970;53.484;49.488;2024-03-08T06:55:58;-3.61;56.98
65369;HTU21D;51970;53.484;49.488;2024-03-08T06:58:24;-3.37;56.50
65369;HTU21D;51970;53.484;49.488;2024-03-08T07:00:50;-3.41;56.39
65369;HTU21D;51970;53.484;49.488;2024-03-08T07:03:24;-3.31;56.41
65369;HTU21D;51970;53.484;49.488;2024-03-08T07:05:50;-3.24;56.14
65369;HTU21D;51970;53.484;49.488;2024-03-08T07:08:16;-3.27;55.77
65369;HTU21D;51970;53.484;49.488;2024-03-08T07:10:43;-3.37;56.23
65369;HTU21D;51970;53.484;49.488;2024-03-08T07:13:11;-3.28;56.44
65369;HTU21D;51970;53.484;49.488;2024-03-08T07:15:37;-3.06;56.69
65369;HTU21D;51970;53.484;49.488;2024-03-08T07:18:03;-2.65;55.12
65369;HTU21D;51970;53.484;49.488;2024-03-08T07:20:29;-2.17;54.72
65369;HTU21D;51970;53.484;49.488;2024-03-08T07:22:55;-2.07;53.52
65369;HTU21D;51970;53.484;49.488;2024-03-08T07:25:22;-2.07;53.49
65369;HTU21D;51970;53.484;49.488;2024-03-08T07:27:50;-2.36;53.83
65369;HTU21D;51970;53.484;49.488;2024-03-08T07:30:20;-2.42;54.78
65369;HTU21D;51970;53.484;49.488;2024-03-08T07:33:16;-2.49;54.96
65369;HTU21D;51970;53.484;49.488;2024-03-08T07:35:42;-2.65;54.94
65369;HTU21D;51970;53.484;49.488;2024-03-08T07:38:09;-2.61;55.66
65369;HTU21D;51970;53.484;49.488;2024-03-08T07:40:39;-2.42;55.52
65369;HTU21D;51970;53.484;49.488;2024-03-08T07:43:10;-2.34;53.77
65369;HTU21D;51970;53.484;49.488;2024-03-08T07:45:37;-2.22;52.87
65369;HTU21D;51970;53.484;49.488;2024-03-08T07:48:04;-1.85;52.51
65369;HTU21D;51970;53.484;49.488;2024-03-08T07:50:39;-1.46;51.33
65369;HTU21D;51970;53.484;49.488;2024-03-08T07:53:06;-1.32;51.06
65369;HTU21D;51970;53.484;49.488;2024-03-08T07:55:33;-1.06;50.59
65369;HTU21D;51970;53.484;49.488;2024-03-08T07:58:01;-0.71;49.65
65369;HTU21D;51970;53.484;49.488;2024-03-08T08:00:29;-0.67;49.48
65369;HTU21D;51970;53.484;49.488;2024-03-08T08:02:57;-0.74;49.62
65369;HTU21D;51970;53.484;49.488;2024-03-08T08:05:23;-0.31;48.45
65369;HTU21D;51970;53.484;49.488;2024-03-08T08:07:49;-0.07;48.21
65369;HTU21D;51970;53.484;49.488;2024-03-08T08:10:16;0.10;48.11
65369;HTU21D;51970;53.484;49.488;2024-03-08T08:12:49;0.20;47.41
65369;HTU21D;51970;53.484;49.488;2024-03-08T08:15:15;0.54;47.38
65369;HTU21D;51970;53.484;49.488;2024-03-08T08:17:42;0.78;46.55
65369;HTU21D;51970;53.484;49.488;2024-03-08T08:20:09;0.67;46.15
65369;HTU21D;51970;53.484;49.488;2024-03-08T08:22:40;0.49;46.40
65369;HTU21D;51970;53.484;49.488;2024-03-08T08:25:07;0.31;46.18
65369;HTU21D;51970;53.484;49.488;2024-03-08T08:27:34;-0.17;46.85
65369;HTU21D;51970;53.484;49.488;2024-03-08T08:30:03;0.04;46.74
65369;HTU21D;51970;53.484;49.488;2024-03-08T08:32:37;0.33;46.53
65369;HTU21D;51970;53.484;49.488;2024-03-08T08:35:04;0.62;45.40
65369;HTU21D;51970;53.484;49.488;2024-03-08T08:37:33;1.23;45.13
65369;HTU21D;51970;53.484;49.488;2024-03-08T08:40:03;1.47;44.57
65369;HTU21D;51970;53.484;49.488;2024-03-08T08:42:36;1.47;43.22
65369;HTU21D;51970;53.484;49.488;2024-03-08T08:45:05;1.12;43.68
65369;HTU21D;51970;53.484;49.488;2024-03-08T08:47:35;1.19;43.19
65369;HTU21D;51970;53.484;49.488;2024-03-08T08:50:01;1.34;44.81
65369;HTU21D;51970;53.484;49.488;2024-03-08T08:52:28;0.98;43.69
65369;HTU21D;51970;53.484;49.488;2024-03-08T08:54:54;1.16;45.12
65369;HTU21D;51970;53.484;49.488;2024-03-08T08:57:21;1.38;44.73
65369;HTU21D;51970;53.484;49.488;2024-03-08T08:59:47;1.33;44.48
65369;HTU21D;51970;53.484;49.488;2024-03-08T09:02:13;0.39;44.99
65369;HTU21D;51970;53.484;49.488;2024-03-08T09:04:40;-0.10;46.36
65369;HTU21D;51970;53.484;49.488;2024-03-08T09:07:06;-0.59;47.54
65369;HTU21D;51970;53.484;49.488;2024-03-08T09:09:32;-0.68;48.38
65369;HTU21D;51970;53.484;49.488;2024-03-08T09:11:58;-0.71;48.57
65369;HTU21D;51970;53.484;49.488;2024-03-08T09:14:25;-0.51;48.12
65369;HTU21D;51970;53.484;49.488;2024-03-08T09:16:52;-0.31;49.59
65369;HTU21D;51970;53.484;49.488;2024-03-08T09:19:18;0.23;49.02
65369;HTU21D;51970;53.484;49.488;2024-03-08T09:21:47;0.34;45.73
65369;HTU21D;51970;53.484;49.488;2024-03-08T09:24:14;0.98;46.77
65369;HTU21D;51970;53.484;49.488;2024-03-08T09:26:40;1.48;45.67
65369;HTU21D;51970;53.484;49.488;2024-03-08T09:29:08;1.48;44.71
65369;HTU21D;51970;53.484;49.488;2024-03-08T09:31:34;1.27;44.89
65369;HTU21D;51970;53.484;49.488;2024-03-08T09:34:00;1.32;45.57
65369;HTU21D;51970;53.484;49.488;2024-03-08T09:36:26;1.26;45.03
65369;HTU21D;51970;53.484;49.488;2024-03-08T09:38:53;0.57;47.04
65369;HTU21D;51970;53.484;49.488;2024-03-08T09:41:19;0.74;48.37
65369;HTU21D;51970;53.484;49.488;2024-03-08T09:43:46;0.77;47.77
65369;HTU21D;51970;53.484;49.488;2024-03-08T09:46:14;0.55;47.15
65369;HTU21D;51970;53.484;49.488;2024-03-08T09:48:40;0.38;47.91
65369;HTU21D;51970;53.484;49.488;2024-03-08T09:51:07;0.35;47.38
65369;HTU21D;51970;53.484;49.488;2024-03-08T09:53:34;0.05;48.10
65369;HTU21D;51970;53.484;49.488;2024-03-08T09:56:00;-0.26;50.30
65369;HTU21D;51970;53.484;49.488;2024-03-08T09:58:29;0.03;50.43
65369;HTU21D;51970;53.484;49.488;2024-03-08T10:01:08;-0.01;49.37
65369;HTU21D;51970;53.484;49.488;2024-03-08T10:03:35;0.21;49.87
65369;HTU21D;51970;53.484;49.488;2024-03-08T10:06:01;0.72;48.76
65369;HTU21D;51970;53.484;49.488;2024-03-08T10:08:29;0.53;49.18
65369;HTU21D;51970;53.484;49.488;2024-03-08T10:10:56;0.75;49.28
65369;HTU21D;51970;53.484;49.488;2024-03-08T10:13:26;0.73;48.51
65369;HTU21D;51970;53.484;49.488;2024-03-08T10:15:55;0.61;49.18
65369;HTU21D;51970;53.484;49.488;2024-03-08T10:18:22;0.32;50.36
65369;HTU21D;51970;53.484;49.488;2024-03-08T10:21:09;0.23;50.10
65369;HTU21D;51970;53.484;49.488;2024-03-08T10:23:37;0.20;50.58
65369;HTU21D;51970;53.484;49.488;2024-03-08T10:26:33;0.19;50.43
65369;HTU21D;51970;53.484;49.488;2024-03-08T10:28:59;0.05;50.96
65369;HTU21D;51970;53.484;49.488;2024-03-08T10:31:26;-0.03;50.81
65369;HTU21D;51970;53.484;49.488;2024-03-08T10:34:14;-0.10;50.85
65369;HTU21D;51970;53.484;49.488;2024-03-08T10:36:41;-0.05;50.76
65369;HTU21D;51970;53.484;49.488;2024-03-08T10:39:23;-0.12;50.21
65369;HTU21D;51970;53.484;49.488;2024-03-08T10:41:57;-0.13;50.67
65369;HTU21D;51970;53.484;49.488;2024-03-08T10:47:33;-0.02;50.18
65369;HTU21D;51970;53.484;49.488;2024-03-08T10:50:18;0.25;50.21
65369;HTU21D;51970;53.484;49.488;2024-03-08T10:52:52;-0.05;50.43
65369;HTU21D;51970;53.484;49.488;2024-03-08T10:55:19;0.28;49.96
65369;HTU21D;51970;53.484;49.488;2024-03-08T10:57:50;0.29;49.84
65369;HTU21D;51970;53.484;49.488;2024-03-08T11:00:17;0.04;49.78
65369;HTU21D;51970;53.484;49.488;2024-03-08T11:02:45;-0.15;50.65
65369;HTU21D;51970;53.484;49.488;2024-03-08T11:05:31;-0.29;51.27
65369;HTU21D;51970;53.484;49.488;2024-03-08T11:08:02;-0.06;51.16
65369;HTU21D;51970;53.484;49.488;2024-03-08T11:10:30;0.18;50.78
65369;HTU21D;51970;53.484;49.488;2024-03-08T11:12:56;0.19;51.61
65369;HTU21D;51970;53.484;49.488;2024-03-08T11:15:24;0.35;51.24
65369;HTU21D;51970;53.484;49.488;2024-03-08T11:17:51;0.48;49.97
65369;HTU21D;51970;53.484;49.488;2024-03-08T11:20:20;0.57;50.72
65369;HTU21D;51970;53.484;49.488;2024-03-08T11:22:53;0.36;49.80
65369;HTU21D;51970;53.484;49.488;2024-03-08T11:25:39;0.42;50.63
65369;HTU21D;51970;53.484;49.488;2024-03-08T11:30:34;0.33;51.24
65369;HTU21D;51970;53.484;49.488;2024-03-08T11:33:01;0.38;50.92
65369;HTU21D;51970;53.484;49.488;2024-03-08T11:35:29;0.43;51.56
65369;HTU21D;51970;53.484;49.488;2024-03-08T11:37:58;0.47;51.14
65369;HTU21D;51970;53.484;49.488;2024-03-08T11:40:26;0.42;51.27
65369;HTU21D;51970;53.484;49.488;2024-03-08T11:42:52;0.43;51.33
65369;HTU21D;51970;53.484;49.488;2024-03-08T11:45:18;0.68;51.54
65369;HTU21D;51970;53.484;49.488;2024-03-08T11:47:47;0.67;50.31
65369;HTU21D;51970;53.484;49.488;2024-03-08T11:50:14;0.48;51.28
65369;HTU21D;51970;53.484;49.488;2024-03-08T11:52:41;0.44;51.57
65369;HTU21D;51970;53.484;49.488;2024-03-08T11:55:09;0.23;52.08
65369;HTU21D;51970;53.484;49.488;2024-03-08T11:57:38;0.07;52.91
65369;HTU21D;51970;53.484;49.488;2024-03-08T12:00:06;0.05;52.91
65369;HTU21D;51970;53.484;49.488;2024-03-08T12:02:35;0.01;52.76
65369;HTU21D;51970;53.484;49.488;2024-03-08T12:05:04;0.21;52.65
65369;HTU21D;51970;53.484;49.488;2024-03-08T12:07:36;0.50;51.37
65369;HTU21D;51970;53.484;49.488;2024-03-08T12:10:22;0.60;52.27
65369;HTU21D;51970;53.484;49.488;2024-03-08T12:12:49;0.55;51.64
65369;HTU21D;51970;53.484;49.488;2024-03-08T12:15:18;0.50;52.01
65369;HTU21D;51970;53.484;49.488;2024-03-08T12:17:47;0.44;51.69
65369;HTU21D;51970;53.484;49.488;2024-03-08T12:20:21;0.09;52.76
65369;HTU21D;51970;53.484;49.488;2024-03-08T12:22:57;0.27;54.42
65369;HTU21D;51970;53.484;49.488;2024-03-08T12:25:27;0.23;53.44
65369;HTU21D;51970;53.484;49.488;2024-03-08T12:27:54;-0.07;53.46
65369;HTU21D;51970;53.484;49.488;2024-03-08T12:30:26;-0.36;54.28
65369;HTU21D;51970;53.484;49.488;2024-03-08T12:32:57;-0.17;55.07
65369;HTU21D;51970;53.484;49.488;2024-03-08T12:35:27;-0.15;55.21
65369;HTU21D;51970;53.484;49.488;2024-03-08T12:37:56;-0.29;55.65
65369;HTU21D;51970;53.484;49.488;2024-03-08T12:40:26;-0.45;56.16
65369;HTU21D;51970;53.484;49.488;2024-03-08T12:42:55;-0.64;56.23
65369;HTU21D;51970;53.484;49.488;2024-03-08T12:45:23;-0.91;57.10
65369;HTU21D;51970;53.484;49.488;2024-03-08T12:47:54;-1.13;57.98
65369;HTU21D;51970;53.484;49.488;2024-03-08T12:50:23;-1.16;58.15
65369;HTU21D;51970;53.484;49.488;2024-03-08T12:52:52;-1.28;58.63
65369;HTU21D;51970;53.484;49.488;2024-03-08T12:55:20;-1.40;58.95
65369;HTU21D;51970;53.484;49.488;2024-03-08T12:57:46;-1.33;59.05
65369;HTU21D;51970;53.484;49.488;2024-03-08T13:00:15;-1.23;58.94
65369;HTU21D;51970;53.484;49.488;2024-03-08T13:02:49;-1.24;58.82
65369;HTU21D;51970;53.484;49.488;2024-03-08T13:05:17;-1.20;58.16
65369;HTU21D;51970;53.484;49.488;2024-03-08T13:07:44;-1.29;58.96
65369;HTU21D;51970;53.484;49.488;2024-03-08T13:10:13;-1.44;58.96
65369;HTU21D;51970;53.484;49.488;2024-03-08T13:12:42;-1.36;58.76
65369;HTU21D;51970;53.484;49.488;2024-03-08T13:15:09;-1.36;58.96
65369;HTU21D;51970;53.484;49.488;2024-03-08T13:17:37;-1.50;58.81
65369;HTU21D;51970;53.484;49.488;2024-03-08T13:20:07;-1.59;59.56
65369;HTU21D;51970;53.484;49.488;2024-03-08T13:22:33;-1.63;60.07
65369;HTU21D;51970;53.484;49.488;2024-03-08T13:24:59;-1.76;60.07
65369;HTU21D;51970;53.484;49.488;2024-03-08T13:27:28;-1.82;60.33
65369;HTU21D;51970;53.484;49.488;2024-03-08T13:29:54;-1.89;60.64
65369;HTU21D;51970;53.484;49.488;2024-03-08T13:32:20;-1.95;61.05
65369;HTU21D;51970;53.484;49.488;2024-03-08T13:34:48;-1.83;61.35
65369;HTU21D;51970;53.484;49.488;2024-03-08T13:37:17;-1.83;62.05
65369;HTU21D;51970;53.484;49.488;2024-03-08T13:39:43;-1.77;61.27
65369;HTU21D;51970;53.484;49.488;2024-03-08T13:42:12;-1.92;60.96
65369;HTU21D;51970;53.484;49.488;2024-03-08T13:44:43;-1.94;61.43
65369;HTU21D;51970;53.484;49.488;2024-03-08T13:47:10;-2.09;62.23
65369;HTU21D;51970;53.484;49.488;2024-03-08T13:49:37;-2.02;62.21
65369;HTU21D;51970;53.484;49.488;2024-03-08T13:52:04;-2.08;62.40
65369;HTU21D;51970;53.484;49.488;2024-03-08T13:54:30;-2.29;62.46
65369;HTU21D;51970;53.484;49.488;2024-03-08T13:56:58;-2.29;62.34
65369;HTU21D;51970;53.484;49.488;2024-03-08T13:59:24;-2.39;63.01
65369;HTU21D;51970;53.484;49.488;2024-03-08T14:01:55;-2.49;64.23
65369;HTU21D;51970;53.484;49.488;2024-03-08T14:04:22;-2.51;64.35
65369;HTU21D;51970;53.484;49.488;2024-03-08T14:06:49;-2.59;64.29
65369;HTU21D;51970;53.484;49.488;2024-03-08T14:09:17;-2.65;64.16
65369;HTU21D;51970;53.484;49.488;2024-03-08T14:11:43;-2.79;64.72
65369;HTU21D;51970;53.484;49.488;2024-03-08T14:14:12;-2.82;65.35
65369;HTU21D;51970;53.484;49.488;2024-03-08T14:16:41;-2.80;65.77
65369;HTU21D;51970;53.484;49.488;2024-03-08T14:19:09;-2.76;65.58
65369;HTU21D;51970;53.484;49.488;2024-03-08T14:21:35;-2.67;65.16
65369;HTU21D;51970;53.484;49.488;2024-03-08T14:24:05;-2.61;65.67
65369;HTU21D;51970;53.484;49.488;2024-03-08T14:26:31;-2.66;64.65
65369;HTU21D;51970;53.484;49.488;2024-03-08T14:28:57;-2.76;64.35
65369;HTU21D;51970;53.484;49.488;2024-03-08T14:31:23;-2.87;64.18
65369;HTU21D;51970;53.484;49.488;2024-03-08T14:33:53;-2.88;65.08
65369;HTU21D;51970;53.484;49.488;2024-03-08T14:36:20;-2.92;65.02
65369;HTU21D;51970;53.484;49.488;2024-03-08T14:38:47;-2.92;65.52
65369;HTU21D;51970;53.484;49.488;2024-03-08T14:41:13;-2.86;65.88
65369;HTU21D;51970;53.484;49.488;2024-03-08T14:43:42;-2.98;65.62
65369;HTU21D;51970;53.484;49.488;2024-03-08T14:46:16;-2.93;65.88
65369;HTU21D;51970;53.484;49.488;2024-03-08T14:48:49;-3.01;66.03
65369;HTU21D;51970;53.484;49.488;2024-03-08T14:51:19;-3.06;66.30
65369;HTU21D;51970;53.484;49.488;2024-03-08T14:53:48;-3.07;66.31
65369;HTU21D;51970;53.484;49.488;2024-03-08T14:56:16;-3.07;66.07
65369;HTU21D;51970;53.484;49.488;2024-03-08T14:58:43;-3.13;66.59
65369;HTU21D;51970;53.484;49.488;2024-03-08T15:01:12;-3.21;66.89
65369;HTU21D;51970;53.484;49.488;2024-03-08T15:03:41;-3.19;67.13
65369;HTU21D;51970;53.484;49.488;2024-03-08T15:06:10;-3.20;67.40
65369;HTU21D;51970;53.484;49.488;2024-03-08T15:08:38;-3.13;66.90
65369;HTU21D;51970;53.484;49.488;2024-03-08T15:11:06;-3.13;66.96
65369;HTU21D;51970;53.484;49.488;2024-03-08T15:13:34;-3.13;67.24
65369;HTU21D;51970;53.484;49.488;2024-03-08T15:16:08;-3.10;67.12